Time;durP1;ratioP1;P1;durP2;ratioP2;P2;SDS_P1;SDS_P2;PMS_P1;PMS_P2;Temp;Humidity;BMP_temperature;BMP_pressure;BME280_temperature;BME280_humidity;BME280_pressure;Samples;Min_cycle;Max_cycle;Signal;HPM_P1;HPM_P2
2022/10/30 00:02:08;;;;;;;5.53;3.83;;;;;;;11.02;89.15;97326.72;5001254;28;20040;-67
2022/10/30 00:04:34;;;;;;;5.93;3.78;;;;;;;11.01;89.07;97312.69;5017485;28;20041;-67
2022/10/30 00:07:00;;;;;;;6.75;4.13;;;;;;;10.99;89.29;97317.50;5051594;28;20052;-67
2022/10/30 00:09:25;;;;;;;5.32;3.80;;;;;;;10.96;88.78;97315.41;5001079;28;20529;-66
2022/10/30 00:11:51;;;;;;;6.70;4.30;;;;;;;10.98;89.11;97305.31;5001048;28;20512;-67
2022/10/30 00:14:17;;;;;;;5.45;3.90;;;;;;;10.94;89.09;97299.00;5051859;28;20041;-67
2022/10/30 00:16:42;;;;;;;5.97;4.13;;;;;;;10.89;89.22;97293.81;5050286;28;20448;-68
2022/10/30 00:19:08;;;;;;;5.80;3.90;;;;;;;10.85;89.90;97287.50;5033669;28;20064;-67
2022/10/30 00:21:34;;;;;;;6.18;3.75;;;;;;;10.89;89.44;97289.28;5017286;28;20045;-66
2022/10/30 00:23:59;;;;;;;7.25;3.97;;;;;;;10.89;90.03;97285.84;5033480;28;20067;-67
2022/10/30 00:26:26;;;;;;;5.22;3.65;;;;;;;10.88;89.66;97284.28;5033749;28;20051;-65
2022/10/30 00:28:54;;;;;;;6.55;4.30;;;;;;;10.88;89.89;97289.56;5000848;28;20037;-67
2022/10/30 00:31:21;;;;;;;8.32;4.40;;;;;;;10.90;89.55;97290.06;5051590;28;20053;-66
2022/10/30 00:33:51;;;;;;;5.00;4.13;;;;;;;10.94;89.75;97290.28;5051252;28;20502;-67
2022/10/30 00:36:17;;;;;;;5.93;4.05;;;;;;;10.98;89.48;97291.28;5016853;28;20045;-67
2022/10/30 00:38:42;;;;;;;6.43;3.75;;;;;;;11.00;89.05;97291.75;5000563;28;20041;-68
2022/10/30 00:41:17;;;;;;;5.55;3.97;;;;;;;10.99;89.55;97284.91;5033473;28;20044;-66
2022/10/30 00:43:43;;;;;;;6.50;4.40;;;;;;;10.91;89.54;97278.38;5016905;28;20045;-66
2022/10/30 00:46:37;;;;;;;7.30;4.53;;;;;;;10.85;90.04;97280.34;5033135;28;20047;-67
2022/10/30 00:49:07;;;;;;;6.53;4.38;;;;;;;10.77;90.26;97270.41;5033211;28;20048;-67
2022/10/30 00:51:33;;;;;;;5.65;4.22;;;;;;;10.70;90.06;97262.03;5033411;28;20057;-68
2022/10/30 00:54:02;;;;;;;6.25;4.18;;;;;;;10.63;90.53;97269.59;5016982;28;20136;-66
2022/10/30 00:56:28;;;;;;;6.00;4.35;;;;;;;10.58;90.76;97262.47;5051283;28;20148;-67
2022/10/30 00:58:58;;;;;;;8.63;4.40;;;;;;;10.57;90.66;97266.22;5002192;28;20052;-66
2022/10/30 01:01:26;;;;;;;8.32;5.72;;;;;;;10.58;90.87;97267.00;5037493;28;20052;-68
2022/10/30 01:03:56;;;;;;;6.43;4.82;;;;;;;10.56;90.31;97266.50;5037243;28;20049;-68
2022/10/30 01:06:22;;;;;;;10.00;4.88;;;;;;;10.58;90.56;97267.78;5021276;28;20128;-67
2022/10/30 01:08:48;;;;;;;7.15;4.97;;;;;;;10.60;90.76;97251.63;5037342;28;20426;-67
2022/10/30 01:11:14;;;;;;;5.97;4.50;;;;;;;10.59;90.01;97255.31;5037152;28;20064;-68
2022/10/30 01:13:41;;;;;;;8.35;4.85;;;;;;;10.58;90.43;97248.47;5055028;28;20073;-67
2022/10/30 01:16:30;;;;;;;5.72;4.32;;;;;;;10.59;90.61;97242.88;5036991;28;20060;-67
2022/10/30 01:19:26;;;;;;;7.90;5.00;;;;;;;10.57;90.18;97250.31;5036940;28;20047;-68
2022/10/30 01:22:01;;;;;;;7.03;4.35;;;;;;;10.50;90.43;97244.63;5020296;28;20048;-66
2022/10/30 01:24:41;;;;;;;8.50;5.25;;;;;;;10.48;90.78;97240.69;5037121;28;20128;-67
2022/10/30 01:27:32;;;;;;;6.07;4.53;;;;;;;10.43;90.63;97246.84;5019995;28;20063;-66
2022/10/30 01:30:19;;;;;;;7.07;4.82;;;;;;;10.40;90.95;97239.47;5004154;28;20073;-66
2022/10/30 01:33:02;;;;;;;7.53;4.75;;;;;;;10.42;91.07;97239.97;5004111;28;20041;-66
2022/10/30 01:36:13;;;;;;;6.78;4.60;;;;;;;10.45;90.84;97248.13;5020378;28;20044;-68
2022/10/30 01:39:14;;;;;;;5.93;4.47;;;;;;;10.47;90.74;97239.91;5018350;28;20064;-66
2022/10/30 01:41:40;;;;;;;7.90;5.28;;;;;;;10.48;90.55;97252.06;5036597;28;20045;-67
2022/10/30 01:44:19;;;;;;;7.13;4.70;;;;;;;10.51;89.61;97245.41;5036529;28;20441;-67
2022/10/30 01:47:19;;;;;;;7.55;4.18;;;;;;;10.51;89.78;97245.41;5019558;28;20405;-67
2022/10/30 01:50:00;;;;;;;5.88;4.05;;;;;;;10.48;89.77;97241.47;5049986;28;20575;-67
2022/10/30 01:52:36;;;;;;;7.30;4.50;;;;;;;10.42;89.62;97245.28;4999192;28;20076;-65
2022/10/30 01:55:23;;;;;;;5.57;3.85;;;;;;;10.39;89.27;97256.44;5050887;28;20132;-67
2022/10/30 01:58:06;;;;;;;6.15;4.47;;;;;;;10.37;89.50;97258.59;5017802;28;20414;-67
2022/10/30 02:00:35;;;;;;;5.68;3.83;;;;;;;10.38;89.52;97255.66;5020342;28;20041;-67
2022/10/30 02:03:01;;;;;;;7.35;4.47;;;;;;;10.40;89.56;97258.00;5019620;28;20059;-68
2022/10/30 02:05:32;;;;;;;6.78;4.60;;;;;;;10.37;89.35;97253.28;5036117;28;20036;-67
2022/10/30 02:07:58;;;;;;;6.57;4.43;;;;;;;10.37;89.51;97258.59;5019976;28;20041;-66
2022/10/30 02:10:25;;;;;;;6.05;3.95;;;;;;;10.34;88.55;97265.22;5035939;28;20048;-67
2022/10/30 02:12:51;;;;;;;5.97;4.03;;;;;;;10.36;88.44;97259.66;5019646;28;20073;-67
2022/10/30 02:15:17;;;;;;;6.68;3.85;;;;;;;10.39;88.62;97267.81;5019429;28;20529;-67
2022/10/30 02:17:43;;;;;;;7.72;4.15;;;;;;;10.39;87.51;97256.44;5036032;28;20426;-68
2022/10/30 02:20:19;;;;;;;5.90;3.60;;;;;;;10.42;87.34;97267.25;5032551;28;20045;-68
2022/10/30 02:22:45;;;;;;;6.07;3.90;;;;;;;10.38;86.52;97262.78;4999816;28;20041;-67
2022/10/30 02:25:11;;;;;;;5.72;3.90;;;;;;;10.34;87.28;97256.50;5015867;28;20045;-67
2022/10/30 02:27:37;;;;;;;7.78;3.97;;;;;;;10.33;86.94;97258.38;4999916;28;20033;-67
2022/10/30 02:30:04;;;;;;;9.32;3.63;;;;;;;10.35;86.20;97258.88;5015718;28;20560;-67
2022/10/30 02:32:30;;;;;;;7.97;4.03;;;;;;;10.43;86.61;97262.72;4999657;28;20053;-67
2022/10/30 02:34:55;;;;;;;8.82;3.70;;;;;;;10.40;85.09;97258.00;4967165;28;20093;-67
2022/10/30 02:37:23;;;;;;;6.00;3.80;;;;;;;10.45;84.58;97255.28;5033861;28;20045;-67
2022/10/30 02:39:49;;;;;;;4.85;3.10;;;;;;;10.43;84.40;97247.63;5032519;28;20140;-68
2022/10/30 02:42:15;;;;;;;5.25;3.20;;;;;;;10.41;83.71;97259.56;5015993;28;20514;-67
2022/10/30 02:44:41;;;;;;;3.92;3.00;;;;;;;10.39;83.63;97248.50;5015721;28;20049;-68
2022/10/30 02:47:07;;;;;;;5.20;3.20;;;;;;;10.40;83.43;97250.06;4983176;28;20033;-67
2022/10/30 02:49:32;;;;;;;6.00;3.10;;;;;;;10.39;83.29;97243.19;5015580;28;20056;-66
2022/10/30 02:51:59;;;;;;;4.60;3.33;;;;;;;10.39;82.52;97246.63;4999198;28;20124;-67
2022/10/30 02:54:25;;;;;;;4.65;3.03;;;;;;;10.40;82.95;97242.91;5015468;28;20067;-67
2022/10/30 02:56:51;;;;;;;5.28;2.88;;;;;;;10.45;82.80;97236.75;5015685;28;20501;-67
2022/10/30 02:59:17;;;;;;;7.93;2.88;;;;;;;10.39;82.46;97240.56;4998979;28;20179;-67
2022/10/30 03:01:43;;;;;;;4.55;2.90;;;;;;;10.34;82.51;97237.97;5015229;28;20041;-67
2022/10/30 03:04:09;;;;;;;4.50;2.92;;;;;;;10.26;82.91;97236.72;4998989;28;20068;-67
2022/10/30 03:06:35;;;;;;;3.35;2.30;;;;;;;10.21;82.48;97240.25;4998788;28;20490;-66
2022/10/30 03:09:00;;;;;;;3.55;2.55;;;;;;;10.27;82.94;97230.41;5015265;28;20529;-67
2022/10/30 03:11:26;;;;;;;7.47;3.45;;;;;;;10.25;82.79;97235.16;5015084;28;20507;-67
2022/10/30 03:13:54;;;;;;;4.95;2.70;;;;;;;10.17;83.60;97228.63;5031714;28;20052;-66
2022/10/30 03:16:24;;;;;;;3.97;2.88;;;;;;;10.13;83.66;97229.50;4998720;28;20208;-67
2022/10/30 03:18:51;;;;;;;3.15;2.28;;;;;;;10.15;82.12;97232.66;5015020;28;20049;-66
2022/10/30 03:21:19;;;;;;;3.53;2.50;;;;;;;10.13;82.13;97235.59;4998248;28;20129;-67
2022/10/30 03:23:45;;;;;;;5.78;2.90;;;;;;;10.05;81.84;97244.16;4999038;28;20044;-69
2022/10/30 03:26:11;;;;;;;3.33;2.45;;;;;;;9.89;82.54;97238.31;4982735;28;20099;-67
2022/10/30 03:28:53;;;;;;;5.32;2.70;;;;;;;9.74;82.88;97233.22;5017067;28;20124;-66
2022/10/30 03:31:19;;;;;;;5.60;2.28;;;;;;;9.66;83.31;97241.78;4982225;28;20490;-66
2022/10/30 03:33:48;;;;;;;3.42;2.30;;;;;;;9.55;83.35;97243.75;4998952;28;20076;-67
2022/10/30 03:36:15;;;;;;;7.30;2.75;;;;;;;9.48;83.01;97246.75;5032573;28;20163;-67
2022/10/30 03:38:42;;;;;;;3.70;2.40;;;;;;;9.39;82.79;97247.66;5014672;28;20053;-67
2022/10/30 03:41:09;;;;;;;7.30;2.42;;;;;;;9.39;83.87;97245.00;4998386;28;20037;-66
2022/10/30 03:43:35;;;;;;;2.92;2.00;;;;;;;9.40;83.84;97249.22;5014796;28;20038;-67
2022/10/30 03:46:02;;;;;;;4.70;2.05;;;;;;;9.35;82.43;97241.34;5014613;28;20494;-67
2022/10/30 03:48:29;;;;;;;3.22;2.00;;;;;;;9.28;82.88;97239.03;5014680;28;20538;-68
2022/10/30 03:50:57;;;;;;;3.05;1.98;;;;;;;9.13;82.85;97226.78;5031058;28;20312;-66
2022/10/30 03:53:25;;;;;;;3.85;2.20;;;;;;;9.15;82.96;97247.63;4981866;28;20049;-68
2022/10/30 03:55:52;;;;;;;4.70;2.33;;;;;;;9.09;83.05;97237.13;5014396;28;20144;-67
2022/10/30 03:58:18;;;;;;;7.88;2.35;;;;;;;9.15;83.09;97240.50;4998366;28;20045;-67
2022/10/30 04:00:45;;;;;;;3.53;1.90;;;;;;;9.14;82.95;97243.41;5014303;28;20041;-67
2022/10/30 04:03:10;;;;;;;3.22;1.83;;;;;;;9.10;82.75;97233.41;4998299;28;20049;-67
2022/10/30 04:05:40;;;;;;;3.58;2.13;;;;;;;9.04;82.02;97231.09;4997804;28;20042;-66
2022/10/30 04:08:10;;;;;;;3.25;2.00;;;;;;;9.00;82.49;97238.00;5014263;28;20041;-67
2022/10/30 04:10:36;;;;;;;;;;;;;;;8.96;83.23;97236.97;4982275;28;20552;-67
2022/10/30 04:13:07;;;;;;;;;;;;;;;8.94;82.65;97229.34;5014672;28;19971;-67
2022/10/30 04:15:35;;;;;;;2.50;1.90;;;;;;;8.96;82.21;97235.13;5014095;28;19986;-66
2022/10/30 04:18:01;;;;;;;5.28;2.08;;;;;;;8.93;82.46;97234.91;5014426;28;20049;-66
2022/10/30 04:20:27;;;;;;;1.73;1.60;;;;;;;8.87;82.50;97231.50;5013835;28;20554;-67
2022/10/30 04:22:57;;;;;;;2.72;1.90;;;;;;;8.85;82.05;97226.53;4997717;28;20041;-67
2022/10/30 04:25:23;;;;;;;;;;;;;;;8.86;82.12;97230.72;5014285;28;20056;-67
2022/10/30 04:27:51;;;;;;;4.47;2.00;;;;;;;8.89;81.95;97229.41;4997540;28;19925;-66
2022/10/30 04:30:20;;;;;;;4.07;1.70;;;;;;;8.86;81.84;97233.38;5014370;28;20065;-68
2022/10/30 04:32:47;;;;;;;3.05;1.60;;;;;;;8.82;81.58;97218.34;4997437;28;20518;-67
2022/10/30 04:35:14;;;;;;;2.10;1.30;;;;;;;8.79;81.79;97218.91;5013587;28;20049;-67
2022/10/30 04:37:41;;;;;;;5.45;1.90;;;;;;;8.83;82.07;97233.16;4997723;28;20057;-67
2022/10/30 04:40:07;;;;;;;1.85;1.58;;;;;;;8.80;81.49;97226.56;5013523;28;20052;-67
2022/10/30 04:42:46;;;;;;;2.47;1.42;;;;;;;8.74;82.54;97218.97;5013663;28;20059;-67
2022/10/30 04:45:12;;;;;;;2.67;1.50;;;;;;;8.75;82.13;97213.41;4997545;28;20041;-67
2022/10/30 04:47:37;;;;;;;2.17;1.50;;;;;;;8.92;81.01;97220.91;4997791;28;20136;-68
2022/10/30 04:50:04;;;;;;;3.55;1.33;;;;;;;9.01;80.16;97207.88;5013784;28;20461;-67
2022/10/30 04:52:31;;;;;;;3.30;1.58;;;;;;;9.09;80.42;97217.84;4981549;28;20485;-67
2022/10/30 04:54:57;;;;;;;2.75;1.75;;;;;;;9.12;80.32;97219.91;4993616;28;20141;-67
2022/10/30 04:57:23;;;;;;;3.58;1.33;;;;;;;9.20;79.67;97224.56;5011934;28;20049;-67
2022/10/30 04:59:49;;;;;;;2.63;1.50;;;;;;;9.27;79.82;97216.31;4994088;28;20514;-68
2022/10/30 05:02:14;;;;;;;4.75;1.75;;;;;;;9.32;80.18;97218.88;4977783;28;20095;-67
2022/10/30 05:04:40;;;;;;;3.42;2.00;;;;;;;9.33;79.30;97204.63;5010237;28;20054;-65
2022/10/30 05:07:06;;;;;;;3.72;1.67;;;;;;;9.33;78.45;97209.91;5011647;28;20534;-66
2022/10/30 05:09:32;;;;;;;2.88;1.67;;;;;;;9.38;78.07;97219.63;4993738;28;20052;-67
2022/10/30 05:11:58;;;;;;;3.38;1.77;;;;;;;9.37;78.16;97212.75;4977686;28;20140;-67
2022/10/30 05:14:28;;;;;;;2.70;1.60;;;;;;;9.40;77.63;97217.50;4994223;28;20046;-67
2022/10/30 05:16:54;;;;;;;2.00;1.50;;;;;;;9.46;77.62;97219.00;4993482;28;20038;-67
2022/10/30 05:19:20;;;;;;;2.45;1.55;;;;;;;9.46;77.29;97217.13;4993804;28;20095;-67
2022/10/30 05:21:51;;;;;;;2.38;1.40;;;;;;;9.47;77.65;97233.78;4978524;28;20048;-67
2022/10/30 05:24:17;;;;;;;3.10;2.15;;;;;;;9.38;78.56;97240.78;4994164;28;20041;-66
2022/10/30 05:26:44;;;;;;;3.47;1.60;;;;;;;9.37;78.88;97239.22;4994025;28;20089;-67
2022/10/30 05:29:11;;;;;;;5.28;1.50;;;;;;;9.32;78.89;97253.25;4977544;28;20049;-67
2022/10/30 05:31:38;;;;;;;4.55;1.77;;;;;;;9.17;80.72;97277.22;4993926;28;20133;-67
2022/10/30 05:34:04;;;;;;;3.58;1.50;;;;;;;8.93;80.32;97248.91;4993759;28;20495;-67
2022/10/30 05:36:30;;;;;;;2.00;1.35;;;;;;;8.98;80.39;97261.28;5009982;28;20140;-66
2022/10/30 05:38:57;;;;;;;2.15;1.20;;;;;;;8.78;77.37;97275.44;4993826;28;20168;-67
2022/10/30 05:41:33;;;;;;;2.53;1.15;;;;;;;8.57;75.58;97272.97;4977425;28;20080;-66
2022/10/30 05:43:58;;;;;;;3.00;1.63;;;;;;;8.49;74.33;97278.06;5011124;28;20471;-67
2022/10/30 05:46:25;;;;;;;3.95;2.10;;;;;;;8.36;71.95;97274.94;5014891;28;20479;-67
2022/10/30 05:48:52;;;;;;;2.75;1.42;;;;;;;8.27;68.67;97299.56;4997215;28;20132;-67
2022/10/30 05:51:19;;;;;;;4.15;1.65;;;;;;;8.20;67.90;97286.63;4980891;28;20053;-68
2022/10/30 05:53:51;;;;;;;4.85;1.65;;;;;;;8.13;66.49;97292.22;5013458;28;20053;-67
2022/10/30 05:56:18;;;;;;;4.55;2.15;;;;;;;8.07;65.99;97288.03;5012795;28;20057;-67
2022/10/30 05:58:44;;;;;;;3.20;1.30;;;;;;;8.02;66.08;97282.00;5016458;28;20049;-67
2022/10/30 06:01:10;;;;;;;3.15;1.77;;;;;;;8.01;66.06;97298.91;5016539;28;20196;-69
2022/10/30 06:03:44;;;;;;;1.80;1.15;;;;;;;7.96;65.36;97304.97;5001695;28;20048;-68
2022/10/30 06:06:12;;;;;;;2.60;1.52;;;;;;;7.94;66.09;97304.44;5000175;28;20092;-68
2022/10/30 06:08:37;;;;;;;4.65;2.10;;;;;;;7.86;66.72;97303.19;5016460;28;20045;-68
2022/10/30 06:11:40;;;;;;;4.20;1.95;;;;;;;7.84;66.57;97320.34;4945546;28;20074;-68
2022/10/30 06:14:08;;;;;;;3.33;2.00;;;;;;;7.80;67.02;97320.09;4973006;28;20049;-68
2022/10/30 06:16:45;;;;;;;3.67;1.88;;;;;;;7.76;67.84;97320.88;5001437;28;20081;-68
2022/10/30 06:19:13;;;;;;;2.78;1.55;;;;;;;7.72;67.94;97318.78;5033923;28;20106;-67
2022/10/30 06:21:40;;;;;;;2.53;1.55;;;;;;;7.74;68.40;97306.13;5016356;28;20045;-66
2022/10/30 06:24:28;;;;;;;2.22;0.90;;;;;;;7.71;68.79;97329.63;5033332;28;20049;-68
2022/10/30 06:27:05;;;;;;;1.70;1.05;;;;;;;7.80;68.63;97330.66;5032758;28;20049;-68
2022/10/30 06:29:31;;;;;;;2.65;1.02;;;;;;;7.95;68.34;97332.44;5016270;28;20045;-72
2022/10/30 06:31:57;;;;;;;1.85;1.00;;;;;;;8.04;67.20;97337.94;4999902;28;20115;-65
2022/10/30 06:34:23;;;;;;;3.85;1.15;;;;;;;8.09;66.08;97345.81;5016211;28;20041;-64
2022/10/30 06:36:51;;;;;;;2.47;1.13;;;;;;;8.08;67.20;97352.94;5015664;28;20144;-66
2022/10/30 06:39:16;;;;;;;1.58;1.25;;;;;;;7.95;66.62;97338.50;5033830;28;20041;-66
2022/10/30 06:41:55;;;;;;;1.80;1.13;;;;;;;7.83;65.49;97347.78;4999615;28;20064;-65
2022/10/30 06:44:30;;;;;;;1.70;0.88;;;;;;;7.72;64.98;97337.25;5017408;28;20047;-65
2022/10/30 06:46:56;;;;;;;2.42;0.73;;;;;;;7.71;64.57;97319.84;5015757;28;20064;-65
2022/10/30 06:49:21;;;;;;;0.70;0.70;;;;;;;7.69;64.01;97331.72;4983101;28;20042;-67
2022/10/30 06:51:49;;;;;;;1.85;0.73;;;;;;;7.58;63.58;97344.13;5015609;28;20045;-66
2022/10/30 06:54:15;;;;;;;1.15;0.82;;;;;;;7.62;63.71;97344.41;5015829;28;20420;-67
2022/10/30 06:56:41;;;;;;;1.55;0.90;;;;;;;7.47;61.32;97359.22;5010853;28;20519;-64
2022/10/30 06:59:25;;;;;;;4.15;1.08;;;;;;;7.43;62.38;97352.88;4998784;28;20053;-67
2022/10/30 07:01:55;;;;;;;3.00;1.00;;;;;;;7.45;62.29;97339.44;5013699;28;20053;-63
2022/10/30 07:04:23;;;;;;;1.10;0.95;;;;;;;7.32;61.49;97350.53;5013064;28;20041;-65
2022/10/30 07:06:49;;;;;;;0.80;0.80;;;;;;;7.10;61.15;97330.53;4995584;28;20052;-65
2022/10/30 07:09:17;;;;;;;1.33;0.82;;;;;;;6.99;61.29;97319.19;5013076;28;20415;-65
2022/10/30 07:11:44;;;;;;;1.58;0.98;;;;;;;6.97;61.39;97329.22;5012914;28;20058;-67
2022/10/30 07:14:19;;;;;;;1.45;0.80;;;;;;;6.91;61.91;97321.56;4980799;28;20045;-64
2022/10/30 07:17:08;;;;;;;2.25;1.10;;;;;;;6.96;61.26;97335.53;5002078;28;20154;-65
2022/10/30 07:19:35;;;;;;;4.45;1.20;;;;;;;7.02;61.23;97347.63;5012012;28;20085;-64
2022/10/30 07:22:00;;;;;;;2.58;1.20;;;;;;;7.07;61.35;97338.16;4979439;28;20074;-65
2022/10/30 07:24:28;;;;;;;4.18;1.10;;;;;;;7.11;61.60;97341.84;4995565;28;20573;-64
2022/10/30 07:27:08;;;;;;;1.98;1.58;;;;;;;7.19;61.57;97334.19;5013464;28;20137;-64
2022/10/30 07:29:42;;;;;;;4.07;1.60;;;;;;;7.24;60.50;97339.47;5011737;28;20046;-63
2022/10/30 07:32:26;;;;;;;1.08;0.90;;;;;;;7.34;60.63;97329.97;4995560;28;20046;-66
2022/10/30 07:35:13;;;;;;;2.00;1.30;;;;;;;7.47;60.32;97319.66;5012694;28;20107;-66
2022/10/30 07:38:11;;;;;;;1.75;0.90;;;;;;;7.60;59.57;97320.16;5011851;28;20065;-64
2022/10/30 07:40:52;;;;;;;1.15;1.00;;;;;;;7.77;59.62;97320.63;4979136;28;20045;-65
2022/10/30 07:43:44;;;;;;;1.35;0.70;;;;;;;7.74;58.72;97303.50;4996192;28;20120;-63
2022/10/30 07:46:28;;;;;;;1.55;1.00;;;;;;;7.77;59.06;97311.94;5011265;28;20057;-65
2022/10/30 07:49:20;;;;;;;1.33;1.05;;;;;;;7.73;58.83;97319.56;5007858;28;20050;-64
2022/10/30 07:51:55;;;;;;;0.93;0.93;;;;;;;7.90;58.69;97296.28;5012833;28;20065;-64
2022/10/30 07:54:21;;;;;;;0.93;0.93;;;;;;;7.83;57.67;97319.56;4995294;28;20033;-65
2022/10/30 07:56:47;;;;;;;1.67;1.23;;;;;;;7.89;58.50;97305.28;5011314;28;20053;-69
2022/10/30 07:59:31;;;;;;;2.72;1.70;;;;;;;7.93;58.08;97308.16;5042909;28;20057;-68
2022/10/30 08:02:17;;;;;;;2.83;1.83;;;;;;;8.05;58.08;97300.72;5018100;28;20053;-67
2022/10/30 08:05:09;;;;;;;2.45;1.80;;;;;;;8.08;57.40;97320.50;5045707;28;20131;-72
2022/10/30 08:07:58;;;;;;;2.85;2.17;;;;;;;8.07;58.15;97324.19;5019121;28;20068;-67
2022/10/30 08:10:24;;;;;;;5.78;2.72;;;;;;;8.08;57.53;97341.59;5009395;28;20065;-66
2022/10/30 08:12:51;;;;;;;4.85;3.15;;;;;;;8.18;57.83;97337.06;5023668;28;20442;-72
2022/10/30 08:15:18;;;;;;;3.85;2.67;;;;;;;8.14;58.54;97320.19;4992203;28;20041;-72
2022/10/30 08:17:46;;;;;;;4.78;3.28;;;;;;;8.33;57.62;97322.22;4991469;28;20080;-72
2022/10/30 08:20:14;;;;;;;7.75;3.90;;;;;;;8.33;57.67;97316.94;4989798;28;20080;-72
2022/10/30 08:22:49;;;;;;;5.35;2.83;;;;;;;8.23;57.29;97309.84;5007049;28;20053;-77
2022/10/30 08:25:22;;;;;;;4.15;2.63;;;;;;;8.18;57.55;97302.75;5006311;28;20073;-73
2022/10/30 08:28:00;;;;;;;5.13;2.83;;;;;;;8.07;57.75;97305.72;5008577;28;20054;-74
2022/10/30 08:30:36;;;;;;;3.15;2.50;;;;;;;8.03;57.89;97300.22;4981800;28;20045;-76
2022/10/30 08:33:09;;;;;;;3.72;2.60;;;;;;;8.02;58.41;97301.25;4977205;28;20045;-71
2022/10/30 08:35:50;;;;;;;2.10;1.90;;;;;;;8.02;58.05;97303.09;5024643;28;20099;-70
2022/10/30 08:38:18;;;;;;;4.45;2.22;;;;;;;7.96;58.37;97313.69;5028021;28;20052;-74
2022/10/30 08:40:49;;;;;;;3.20;1.83;;;;;;;7.83;56.89;97311.63;5013639;28;20094;-68
2022/10/30 08:43:17;;;;;;;4.22;2.10;;;;;;;7.89;57.76;97292.09;5011741;28;20041;-68
2022/10/30 08:45:43;;;;;;;3.03;1.60;;;;;;;7.89;57.58;97286.03;5022859;28;20075;-66
2022/10/30 08:48:14;;;;;;;2.08;1.35;;;;;;;7.90;57.79;97282.31;5026118;28;20120;-66
2022/10/30 08:50:43;;;;;;;3.05;1.42;;;;;;;7.96;57.86;97284.66;5019253;28;20547;-66
2022/10/30 08:53:13;;;;;;;3.35;1.38;;;;;;;8.07;58.05;97284.63;5044954;28;20041;-67
2022/10/30 08:55:40;;;;;;;1.30;1.20;;;;;;;8.07;57.13;97288.03;5016847;28;20126;-64
2022/10/30 08:58:14;;;;;;;1.33;1.20;;;;;;;8.09;57.63;97269.28;5044381;28;20574;-63
2022/10/30 09:00:40;;;;;;;4.60;1.98;;;;;;;8.04;57.15;97269.34;5040326;28;20049;-65
2022/10/30 09:03:18;;;;;;;2.80;1.35;;;;;;;8.07;57.22;97282.78;5041825;28;20041;-68
2022/10/30 09:06:10;;;;;;;1.23;1.20;;;;;;;8.08;57.25;97265.09;5037374;28;20052;-67
2022/10/30 09:08:39;;;;;;;4.05;1.60;;;;;;;8.11;58.53;97262.69;5039318;28;20040;-67
2022/10/30 09:11:09;;;;;;;1.55;1.10;;;;;;;8.15;57.17;97255.03;5018644;28;20044;-66
2022/10/30 09:13:36;;;;;;;1.08;1.00;;;;;;;8.20;56.65;97249.69;5010107;28;20124;-64
2022/10/30 09:16:04;;;;;;;0.90;0.90;;;;;;;8.12;57.14;97261.63;5036531;28;20067;-66
2022/10/30 09:18:33;;;;;;;1.20;0.95;;;;;;;8.11;57.26;97277.72;5047547;28;20044;-66
2022/10/30 09:20:59;;;;;;;2.35;1.25;;;;;;;7.97;57.47;97251.16;5034197;28;20110;-64
2022/10/30 09:23:26;;;;;;;2.00;1.20;;;;;;;7.95;57.62;97248.78;5044709;28;20048;-66
2022/10/30 09:26:03;;;;;;;1.35;1.00;;;;;;;7.99;57.37;97256.16;5039515;28;20168;-66
2022/10/30 09:28:42;;;;;;;1.63;1.10;;;;;;;7.98;58.25;97252.75;5038932;28;20041;-67
2022/10/30 09:31:44;;;;;;;1.27;1.17;;;;;;;8.03;57.87;97250.09;5000557;28;20177;-67
2022/10/30 09:34:13;;;;;;;2.47;1.25;;;;;;;8.02;57.70;97252.97;4995465;28;20045;-68
2022/10/30 09:36:46;;;;;;;1.58;1.10;;;;;;;8.10;57.79;97252.41;4977111;28;20108;-68
2022/10/30 09:39:12;;;;;;;1.30;1.20;;;;;;;8.20;57.39;97241.78;4992832;28;20141;-70
2022/10/30 09:41:55;;;;;;;3.80;1.58;;;;;;;8.36;57.46;97253.03;4995803;28;20164;-67
2022/10/30 09:44:28;;;;;;;3.85;2.03;;;;;;;8.58;57.39;97252.63;4980006;28;20041;-67
2022/10/30 09:47:29;;;;;;;2.15;1.50;;;;;;;8.18;57.59;97194.56;5011977;28;20076;-67
2022/10/30 09:50:10;;;;;;;2.15;1.10;;;;;;;8.31;57.91;97237.22;5012436;28;20045;-68
2022/10/30 09:52:55;;;;;;;3.97;1.38;;;;;;;8.19;58.29;97240.22;5028700;28;20054;-68
2022/10/30 09:55:39;;;;;;;1.30;1.20;;;;;;;8.18;57.97;97238.66;4955259;28;20523;-67
2022/10/30 09:58:09;;;;;;;3.15;1.27;;;;;;;8.10;58.89;97231.31;4975641;28;20073;-67
2022/10/30 10:00:39;;;;;;;2.72;1.20;;;;;;;8.03;58.31;97228.97;5008433;28;20169;-66
2022/10/30 10:03:41;;;;;;;1.27;1.17;;;;;;;7.94;57.37;97223.47;5004605;28;20147;-65
2022/10/30 10:06:25;;;;;;;5.18;1.48;;;;;;;7.81;57.53;97234.63;5021788;28;20048;-66
2022/10/30 10:09:19;;;;;;;3.63;2.25;;;;;;;7.69;57.56;97224.41;5036053;28;20490;-67
2022/10/30 10:12:39;;;;;;;7.47;4.22;;;;;;;7.69;57.26;97220.97;5040120;28;20057;-67
2022/10/30 10:15:20;;;;;;;2.58;1.85;;;;;;;7.68;55.13;97227.31;5036009;28;20390;-66
2022/10/30 10:17:46;;;;;;;2.40;1.70;;;;;;;7.53;55.66;97216.81;5035638;28;20640;-67
2022/10/30 10:20:36;;;;;;;3.25;1.65;;;;;;;7.54;56.43;97232.38;5019244;28;20052;-65
2022/10/30 10:23:23;;;;;;;6.57;3.05;;;;;;;7.57;57.35;97217.88;5014219;28;20061;-67
2022/10/30 10:25:53;;;;;;;5.07;2.10;;;;;;;7.67;57.87;97223.09;5035756;28;20066;-66
2022/10/30 10:28:48;;;;;;;1.75;1.20;;;;;;;7.68;57.84;97229.94;5019259;28;20413;-67
2022/10/30 10:31:22;;;;;;;1.45;1.20;;;;;;;7.72;58.03;97213.31;5034384;28;20045;-67
2022/10/30 10:34:25;;;;;;;2.33;1.15;;;;;;;7.84;56.95;97212.19;5035892;28;20037;-68
2022/10/30 10:37:09;;;;;;;0.80;0.80;;;;;;;7.95;55.91;97214.50;5035686;28;20110;-66
2022/10/30 10:39:54;;;;;;;1.83;0.90;;;;;;;8.04;54.36;97200.72;5053299;28;20041;-67
2022/10/30 10:42:50;;;;;;;1.20;1.10;;;;;;;7.98;53.92;97194.69;5052990;28;20068;-66
2022/10/30 10:45:50;;;;;;;5.50;3.28;;;;;;;7.94;53.81;97185.75;5053401;28;20433;-65
2022/10/30 10:48:48;;;;;;;1.63;1.13;;;;;;;7.95;54.01;97197.88;5018934;28;20041;-67
2022/10/30 10:51:24;;;;;;;0.70;0.70;;;;;;;7.86;55.92;97208.22;5019351;28;20053;-66
2022/10/30 10:54:01;;;;;;;1.25;0.93;;;;;;;7.51;59.98;97219.75;5053280;28;20041;-64
2022/10/30 10:56:33;;;;;;;1.00;1.00;;;;;;;7.37;62.62;97216.09;5036317;28;20417;-65
2022/10/30 10:59:19;;;;;;;2.20;0.95;;;;;;;7.20;58.44;97203.22;5038090;28;20048;-65
2022/10/30 11:01:51;;;;;;;0.80;0.80;;;;;;;6.90;57.01;97189.09;5054737;28;20037;-65
2022/10/30 11:04:38;;;;;;;0.98;0.90;;;;;;;6.96;57.24;97213.56;5055145;28;20529;-66
2022/10/30 11:07:22;;;;;;;1.25;1.15;;;;;;;7.08;58.02;97229.88;5054683;28;20127;-70
2022/10/30 11:09:56;;;;;;;2.08;0.88;;;;;;;7.12;56.44;97212.50;5072998;28;20068;-71
2022/10/30 11:12:30;;;;;;;2.67;1.60;;;;;;;7.15;55.30;97224.34;5005917;28;20037;-69
2022/10/30 11:14:57;;;;;;;2.72;1.50;;;;;;;7.18;55.13;97227.22;5051484;28;20048;-67
2022/10/30 11:17:27;;;;;;;1.20;1.10;;;;;;;7.13;56.18;97231.72;5037377;28;20156;-69
2022/10/30 11:20:01;;;;;;;2.25;1.20;;;;;;;7.05;57.23;97243.59;5016408;28;20336;-66
2022/10/30 11:22:32;;;;;;;1.08;0.80;;;;;;;6.99;57.64;97255.97;5035131;28;20528;-67
2022/10/30 11:25:22;;;;;;;1.55;1.02;;;;;;;6.89;58.33;97260.47;5054858;28;20041;-65
2022/10/30 11:27:54;;;;;;;3.63;1.15;;;;;;;6.94;57.84;97257.81;5064645;28;20056;-64
2022/10/30 11:30:22;;;;;;;3.78;1.73;;;;;;;6.79;57.94;97258.63;5054540;28;20037;-65
2022/10/30 11:32:50;;;;;;;1.92;1.58;;;;;;;6.54;58.55;97259.44;5054195;28;20045;-73
2022/10/30 11:35:19;;;;;;;2.65;1.65;;;;;;;6.43;58.74;97244.69;5037936;28;20135;-70
2022/10/30 11:37:50;;;;;;;4.93;2.22;;;;;;;6.49;58.62;97254.94;5054361;28;20040;-69
2022/10/30 11:40:19;;;;;;;4.50;1.40;;;;;;;6.59;58.94;97257.59;5021018;28;20190;-70
2022/10/30 11:42:48;;;;;;;1.30;1.20;;;;;;;6.65;58.05;97247.88;5037209;28;20533;-71
2022/10/30 11:45:16;;;;;;;1.45;1.05;;;;;;;6.67;56.55;97237.06;5053990;28;20398;-68
2022/10/30 11:47:43;;;;;;;9.07;2.70;;;;;;;6.31;54.56;97201.00;5054048;28;20044;-67
2022/10/30 11:50:20;;;;;;;9.98;3.55;;;;;;;6.49;53.77;97241.78;5051485;28;20452;-68
2022/10/30 11:52:47;;;;;;;2.70;1.85;;;;;;;6.40;52.55;97238.09;5054419;28;20413;-69
2022/10/30 11:55:14;;;;;;;2.92;1.40;;;;;;;6.37;52.80;97241.25;5034258;28;20056;-66
2022/10/30 11:57:42;;;;;;;1.77;1.40;;;;;;;6.37;52.38;97236.78;5015801;28;20045;-68
2022/10/30 12:00:19;;;;;;;1.58;1.17;;;;;;;6.33;52.37;97237.59;5015775;28;20044;-67
2022/10/30 12:02:51;;;;;;;2.58;1.80;;;;;;;6.26;52.29;97221.25;5001134;28;20037;-67
2022/10/30 12:05:24;;;;;;;4.90;2.08;;;;;;;6.16;51.04;97231.78;5033597;28;20048;-67